sim
Sign-in with your pilot id or email,
or register
Callsign
Passwort

Schedule Details

Flight Number: RYR7128 (3)
Departure: Dublin Airport (EIDW) at 12:55
Arrival: Fuerteventura Airport (GCFV) at 17:20
Route: Ryanair Passenger Schedule. Enter filed route here before submitting Pirep.

Weather Information
Getting current METAR information for EIDW 211500Z 18016KT 9999 FEW022 BKN250 13/06 Q1020 NOSIG
Getting current METAR information for GCFV 211500Z 06004KT 010V110 CAVOK 20/14 Q1021

Schedule Frequency

Route Map